createdAt,value
2022-11-13T00:01:44.173Z,43.80
2022-11-13T00:04:31.536Z,46.40
2022-11-13T00:07:19.311Z,44.50
2022-11-13T00:10:23.118Z,49.70
2022-11-13T00:13:11.328Z,50.00
2022-11-13T00:16:00.443Z,46.10
2022-11-13T00:18:52.468Z,47.20
2022-11-13T00:21:43.378Z,41.40
2022-11-13T00:24:31.102Z,44.50
2022-11-13T00:27:18.645Z,46.30
2022-11-13T00:30:08.713Z,45.10
2022-11-13T00:32:58.773Z,44.70
2022-11-13T00:35:47.427Z,45.60
2022-11-13T00:38:35.726Z,49.30
2022-11-13T00:41:24.082Z,48.90
2022-11-13T00:44:11.301Z,46.40
2022-11-13T00:49:54.102Z,44.90
2022-11-13T00:52:44.787Z,39.50
2022-11-13T00:55:32.384Z,46.10
2022-11-13T00:58:20.024Z,44.20
2022-11-13T01:01:10.170Z,44.20
2022-11-13T01:03:57.973Z,47.10
2022-11-13T01:06:45.937Z,47.30
2022-11-13T01:09:34.471Z,47.40
2022-11-13T01:12:22.047Z,46.60
2022-11-13T01:15:10.239Z,47.90
2022-11-13T01:17:59.708Z,48.00
2022-11-13T01:20:48.168Z,43.90
2022-11-13T01:23:38.523Z,49.80
2022-11-13T01:26:28.596Z,42.70
2022-11-13T01:29:16.333Z,40.10
2022-11-13T01:32:05.878Z,41.10
2022-11-13T01:34:56.540Z,46.50
2022-11-13T01:37:44.092Z,46.10
2022-11-13T01:40:35.439Z,46.50
2022-11-13T01:43:29.890Z,45.60
2022-11-13T01:46:27.598Z,47.00
2022-11-13T01:49:28.036Z,48.90
2022-11-13T01:52:20.312Z,51.50
2022-11-13T01:55:12.572Z,43.20
2022-11-13T01:58:05.605Z,42.10
2022-11-13T02:00:55.263Z,45.90
2022-11-13T02:03:48.583Z,42.30
2022-11-13T02:06:41.120Z,44.20
2022-11-13T02:09:33.905Z,45.50
2022-11-13T02:12:29.069Z,43.80
2022-11-13T02:15:25.467Z,45.60
2022-11-13T02:18:15.369Z,54.40
2022-11-13T02:21:15.759Z,44.90
2022-11-13T02:24:18.759Z,48.80
2022-11-13T02:27:10.791Z,42.10
2022-11-13T02:29:59.518Z,49.60
2022-11-13T02:32:49.250Z,50.30
2022-11-13T02:35:38.265Z,44.40
2022-11-13T02:38:25.739Z,53.30
2022-11-13T02:41:19.273Z,45.50
2022-11-13T02:44:07.982Z,49.10
2022-11-13T02:46:55.315Z,47.20
2022-11-13T02:49:43.538Z,43.50
2022-11-13T02:52:31.565Z,39.70
2022-11-13T02:55:21.934Z,40.30
2022-11-13T02:58:09.250Z,44.00
2022-11-13T03:00:57.309Z,42.10
2022-11-13T03:03:58.888Z,46.30
2022-11-13T03:06:48.309Z,45.60
2022-11-13T03:09:37.079Z,42.40
2022-11-13T03:12:28.087Z,44.10
2022-11-13T03:15:15.692Z,46.90
2022-11-13T03:18:05.041Z,40.60
2022-11-13T03:23:54.017Z,51.10
2022-11-13T03:26:41.184Z,42.10
2022-11-13T03:29:34.267Z,40.00
2022-11-13T03:32:21.780Z,40.70
2022-11-13T03:35:09.951Z,46.30
2022-11-13T03:38:00.121Z,45.30
2022-11-13T03:40:50.716Z,41.00
2022-11-13T03:43:40.391Z,43.00
2022-11-13T03:46:28.149Z,38.70
2022-11-13T03:49:15.416Z,41.50
2022-11-13T03:52:02.889Z,39.70
2022-11-13T03:54:52.762Z,38.40
2022-11-13T03:57:40.460Z,40.40
2022-11-13T04:00:29.724Z,37.10
2022-11-13T04:03:20.290Z,36.20
2022-11-13T04:06:08.920Z,37.40
2022-11-13T04:08:57.676Z,38.00
2022-11-13T04:11:44.599Z,37.20
2022-11-13T04:14:32.470Z,39.70
2022-11-13T04:17:21.602Z,41.80
2022-11-13T04:20:14.195Z,41.50
2022-11-13T04:23:04.188Z,42.60
2022-11-13T04:25:54.177Z,40.40
2022-11-13T04:28:40.885Z,44.90
2022-11-13T04:31:28.858Z,43.00
2022-11-13T04:34:18.785Z,37.00
2022-11-13T04:37:06.384Z,36.50
2022-11-13T04:39:54.814Z,36.40
2022-11-13T04:42:50.125Z,48.00
2022-11-13T04:45:37.606Z,40.40
2022-11-13T04:48:28.367Z,37.90
2022-11-13T04:51:17.626Z,44.00
2022-11-13T04:54:13.623Z,40.70
2022-11-13T04:57:01.508Z,40.50
2022-11-13T04:59:51.146Z,33.80
2022-11-13T05:05:31.211Z,38.70
2022-11-13T05:08:24.214Z,39.70
2022-11-13T05:11:20.570Z,39.20
2022-11-13T05:14:11.842Z,45.10
2022-11-13T05:17:00.205Z,36.00
2022-11-13T05:19:49.538Z,37.80
2022-11-13T05:22:37.175Z,35.30
2022-11-13T05:25:24.533Z,40.20
2022-11-13T05:28:12.594Z,36.50
2022-11-13T05:31:06.978Z,35.20
2022-11-13T05:34:01.273Z,37.00
2022-11-13T05:36:52.595Z,45.10
2022-11-13T05:39:40.011Z,41.20
2022-11-13T05:42:28.515Z,38.70
2022-11-13T05:45:16.108Z,40.60
2022-11-13T05:48:11.133Z,44.40
2022-11-13T05:51:03.950Z,41.50
2022-11-13T05:53:54.561Z,37.80
2022-11-13T05:56:42.267Z,39.70
2022-11-13T05:59:29.711Z,40.70
2022-11-13T06:02:19.477Z,39.30
2022-11-13T06:05:12.077Z,45.80
2022-11-13T06:07:59.532Z,38.90
2022-11-13T06:10:50.420Z,42.90
2022-11-13T06:13:41.283Z,42.40
2022-11-13T06:16:33.048Z,38.20
2022-11-13T06:19:21.242Z,36.60
2022-11-13T06:22:16.464Z,35.40
2022-11-13T06:25:06.527Z,31.30
2022-11-13T06:28:01.364Z,31.30
2022-11-13T06:30:50.627Z,36.50
2022-11-13T06:33:41.258Z,36.80
2022-11-13T06:36:32.308Z,36.60
2022-11-13T06:39:19.861Z,34.10
2022-11-13T06:42:07.223Z,37.50
2022-11-13T06:44:54.384Z,33.10
2022-11-13T06:47:42.377Z,31.80
2022-11-13T06:50:32.571Z,28.80
2022-11-13T06:53:20.499Z,30.20
2022-11-13T06:56:09.993Z,30.90
2022-11-13T06:58:58.279Z,33.20
2022-11-13T07:01:46.210Z,31.90
2022-11-13T07:04:35.868Z,31.20
2022-11-13T07:07:23.536Z,28.10
2022-11-13T07:10:12.763Z,33.30
2022-11-13T07:13:01.101Z,33.30
2022-11-13T07:15:52.475Z,26.00
2022-11-13T07:18:40.101Z,30.70
2022-11-13T07:21:27.195Z,28.50
2022-11-13T07:24:24.123Z,26.90
2022-11-13T07:27:16.460Z,30.30
2022-11-13T07:30:06.726Z,27.10
2022-11-13T07:32:54.119Z,28.50
2022-11-13T07:35:41.169Z,29.80
2022-11-13T07:38:29.302Z,29.60
2022-11-13T07:41:23.887Z,26.70
2022-11-13T07:44:21.931Z,31.40
2022-11-13T07:47:25.916Z,28.40
2022-11-13T07:50:16.391Z,24.40
2022-11-13T07:53:09.062Z,21.20
2022-11-13T07:56:01.633Z,23.10
2022-11-13T07:58:58.244Z,16.80
2022-11-13T08:01:45.654Z,16.50
2022-11-13T08:04:33.203Z,23.20
2022-11-13T08:07:21.276Z,16.20
2022-11-13T08:10:11.439Z,17.50
2022-11-13T08:15:49.503Z,19.40
2022-11-13T08:18:37.349Z,17.60
2022-11-13T08:21:29.881Z,16.20
2022-11-13T08:24:23.001Z,15.40
2022-11-13T08:27:10.263Z,16.30
2022-11-13T08:29:58.044Z,15.70
2022-11-13T08:32:45.214Z,17.30
2022-11-13T08:36:02.435Z,14.90
2022-11-13T08:38:51.698Z,15.90
2022-11-13T08:41:39.463Z,18.40
2022-11-13T08:44:26.815Z,15.90
2022-11-13T08:47:21.318Z,16.30
2022-11-13T08:50:11.125Z,14.20
2022-11-13T08:53:00.886Z,18.00
2022-11-13T08:55:52.201Z,15.00
2022-11-13T08:58:39.228Z,18.20
2022-11-13T09:01:27.993Z,19.80
2022-11-13T09:04:18.439Z,22.00
2022-11-13T09:07:05.746Z,17.20
2022-11-13T09:09:56.664Z,16.70
2022-11-13T09:12:48.884Z,16.10
2022-11-13T09:15:40.006Z,19.90
2022-11-13T09:18:29.561Z,18.10
2022-11-13T09:21:18.123Z,16.70
2022-11-13T09:24:06.699Z,23.90
2022-11-13T09:26:55.704Z,18.40
2022-11-13T09:29:44.293Z,17.20
2022-11-13T09:32:32.545Z,18.00
2022-11-13T09:35:33.151Z,19.40
2022-11-13T09:38:20.497Z,16.30
2022-11-13T09:41:10.187Z,16.80
2022-11-13T09:44:02.286Z,13.40
2022-11-13T09:46:58.334Z,17.10
2022-11-13T09:49:54.340Z,16.50
2022-11-13T09:52:44.155Z,18.50
2022-11-13T09:55:38.654Z,19.60
2022-11-13T09:58:34.767Z,19.00
2022-11-13T10:01:33.478Z,18.80
2022-11-13T10:04:28.789Z,18.40
2022-11-13T10:07:30.906Z,17.10
2022-11-13T10:10:49.300Z,18.60
2022-11-13T10:13:53.294Z,17.90
2022-11-13T10:16:52.199Z,19.70
2022-11-13T10:19:47.337Z,17.70
2022-11-13T10:22:40.580Z,15.70
2022-11-13T10:25:32.108Z,17.70
2022-11-13T10:28:48.737Z,14.40
2022-11-13T10:31:42.391Z,13.20
2022-11-13T10:34:29.629Z,15.30
2022-11-13T10:37:35.272Z,13.40
2022-11-13T10:40:29.436Z,15.50
2022-11-13T10:43:22.111Z,17.70
2022-11-13T10:46:24.350Z,12.40
2022-11-13T10:49:22.094Z,15.20
2022-11-13T10:52:20.601Z,12.50
2022-11-13T10:55:20.490Z,17.30
2022-11-13T10:58:16.060Z,13.30
2022-11-13T11:01:22.019Z,14.50
2022-11-13T11:04:19.392Z,15.00
2022-11-13T11:07:24.045Z,18.40
2022-11-13T11:10:35.054Z,14.70
2022-11-13T11:13:24.139Z,15.60
2022-11-13T11:16:24.480Z,14.20
2022-11-13T11:19:20.804Z,17.50
2022-11-13T11:22:15.816Z,17.20
2022-11-13T11:25:12.653Z,12.50
2022-11-13T11:28:06.631Z,14.70
2022-11-13T11:31:05.450Z,16.80
2022-11-13T11:33:56.778Z,17.40
2022-11-13T11:36:55.680Z,17.30
2022-11-13T11:39:51.674Z,14.10
2022-11-13T11:42:48.896Z,18.50
2022-11-13T11:45:40.208Z,20.20
2022-11-13T11:48:37.296Z,22.70
2022-11-13T11:51:31.154Z,18.10
2022-11-13T11:54:33.804Z,17.00
2022-11-13T11:57:36.840Z,18.00
2022-11-13T12:00:24.416Z,16.60
2022-11-13T12:03:49.964Z,17.10
2022-11-13T12:06:48.559Z,18.60
2022-11-13T12:09:40.552Z,22.40
2022-11-13T12:12:38.006Z,18.80
2022-11-13T12:15:37.248Z,16.80
2022-11-13T12:18:37.139Z,20.90
2022-11-13T12:21:28.266Z,21.40
2022-11-13T12:24:50.110Z,22.50
2022-11-13T12:27:43.991Z,18.60
2022-11-13T12:30:42.521Z,17.20
2022-11-13T12:33:46.165Z,17.50
2022-11-13T12:36:35.393Z,19.90
2022-11-13T12:39:36.796Z,17.60
2022-11-13T12:42:34.250Z,20.40
2022-11-13T12:45:31.088Z,18.10
2022-11-13T12:48:35.239Z,20.00
2022-11-13T12:51:22.765Z,17.40
2022-11-13T12:54:14.080Z,19.90
2022-11-13T12:57:17.386Z,34.20
2022-11-13T13:00:30.462Z,24.50
2022-11-13T13:03:39.271Z,21.60
2022-11-13T13:06:56.929Z,18.80
2022-11-13T13:09:57.280Z,18.90
2022-11-13T13:13:02.212Z,20.30
2022-11-13T13:15:57.479Z,18.80
2022-11-13T13:18:47.667Z,18.50
2022-11-13T13:21:44.260Z,16.60
2022-11-13T13:24:33.989Z,18.20
2022-11-13T13:27:26.036Z,18.50
2022-11-13T13:30:21.949Z,18.40
2022-11-13T13:33:27.270Z,19.20
2022-11-13T13:36:25.709Z,20.80
2022-11-13T13:39:35.095Z,18.60
2022-11-13T13:42:39.245Z,19.70
2022-11-13T13:45:35.412Z,20.80
2022-11-13T13:48:27.561Z,19.60
2022-11-13T13:51:23.177Z,19.40
2022-11-13T13:54:18.428Z,19.00
2022-11-13T13:57:10.916Z,23.60
2022-11-13T13:59:58.561Z,21.50
2022-11-13T14:02:53.667Z,25.50
2022-11-13T14:05:44.488Z,21.30
2022-11-13T14:08:31.969Z,23.70
2022-11-13T14:11:21.617Z,21.30
2022-11-13T14:14:15.771Z,19.30
2022-11-13T14:17:03.629Z,20.00
2022-11-13T14:19:51.206Z,20.10
2022-11-13T14:22:39.543Z,25.60
2022-11-13T14:25:29.426Z,21.50
2022-11-13T14:28:20.584Z,21.90
2022-11-13T14:31:09.952Z,21.90
2022-11-13T14:34:09.536Z,21.60
2022-11-13T14:37:06.453Z,23.60
2022-11-13T14:39:55.803Z,23.30
2022-11-13T14:43:15.206Z,31.40
2022-11-13T14:46:04.445Z,31.30
2022-11-13T14:48:54.975Z,29.00
2022-11-13T14:51:54.153Z,24.70
2022-11-13T14:55:13.121Z,24.30
2022-11-13T14:57:52.116Z,28.70
2022-11-13T15:00:39.726Z,27.70
2022-11-13T15:03:29.533Z,28.60
2022-11-13T15:06:19.826Z,30.80
2022-11-13T15:09:12.836Z,36.90
2022-11-13T15:12:05.619Z,28.20
2022-11-13T15:14:56.322Z,29.80
2022-11-13T15:17:44.106Z,27.60
2022-11-13T15:20:50.567Z,29.10
2022-11-13T15:23:55.088Z,31.20
2022-11-13T15:26:42.403Z,36.10
2022-11-13T15:29:30.711Z,34.10
2022-11-13T15:32:17.687Z,34.60
2022-11-13T15:35:06.143Z,31.60
2022-11-13T15:40:40.438Z,35.50
2022-11-13T15:43:31.690Z,40.20
2022-11-13T15:46:21.086Z,42.50
2022-11-13T15:49:08.608Z,70.40
2022-11-13T15:51:56.896Z,77.50
2022-11-13T15:54:44.331Z,61.00
2022-11-13T15:57:32.067Z,48.60
2022-11-13T16:00:24.649Z,39.30
2022-11-13T16:03:12.314Z,37.60
2022-11-13T16:06:02.665Z,32.60
2022-11-13T16:08:53.437Z,34.00
2022-11-13T16:11:41.678Z,30.70
2022-11-13T16:14:31.787Z,25.70
2022-11-13T16:17:25.968Z,30.50
2022-11-13T16:20:18.519Z,31.60
2022-11-13T16:23:10.031Z,29.80
2022-11-13T16:26:00.179Z,29.60
2022-11-13T16:29:16.828Z,29.70
2022-11-13T16:31:59.214Z,28.90
2022-11-13T16:34:51.576Z,24.10
2022-11-13T16:37:40.395Z,23.90
2022-11-13T16:40:30.007Z,25.50
2022-11-13T16:46:19.881Z,18.00
2022-11-13T16:49:18.295Z,25.00
2022-11-13T16:52:05.896Z,24.10
2022-11-13T16:54:56.064Z,27.80
2022-11-13T16:57:44.000Z,30.70
2022-11-13T17:00:33.968Z,45.90
2022-11-13T17:03:21.995Z,43.70
2022-11-13T17:06:20.431Z,25.90
2022-11-13T17:09:15.318Z,20.50
2022-11-13T17:12:05.734Z,30.70
2022-11-13T17:15:00.666Z,80.90
2022-11-13T17:17:49.558Z,103.00
2022-11-13T17:20:41.695Z,60.20
2022-11-13T17:23:32.467Z,32.30
2022-11-13T17:26:22.553Z,33.30
2022-11-13T17:29:10.289Z,30.00
2022-11-13T17:32:02.300Z,36.00
2022-11-13T17:34:52.931Z,39.10
2022-11-13T17:37:43.348Z,42.90
2022-11-13T17:40:34.513Z,50.90
2022-11-13T17:43:27.759Z,34.90
2022-11-13T17:46:17.902Z,33.60
2022-11-13T17:49:06.272Z,35.10
2022-11-13T17:51:53.657Z,27.90
2022-11-13T17:54:40.586Z,32.40
2022-11-13T17:57:28.516Z,28.10
2022-11-13T18:00:19.743Z,32.40
2022-11-13T18:03:12.168Z,30.70
2022-11-13T18:06:13.474Z,37.40
2022-11-13T18:09:01.098Z,41.30
2022-11-13T18:11:50.538Z,45.00
2022-11-13T18:14:41.090Z,46.00
2022-11-13T18:17:32.072Z,34.80
2022-11-13T18:20:20.837Z,38.40
2022-11-13T18:23:11.834Z,59.30
2022-11-13T18:26:13.609Z,62.20
2022-11-13T18:29:04.419Z,28.70
2022-11-13T18:31:51.874Z,32.60
2022-11-13T18:34:39.583Z,31.00
2022-11-13T18:37:31.182Z,28.40
2022-11-13T18:40:20.898Z,31.00
2022-11-13T18:43:08.256Z,30.00
2022-11-13T18:46:06.031Z,29.70
2022-11-13T18:49:00.214Z,29.40
2022-11-13T18:51:50.495Z,33.90
2022-11-13T18:54:42.612Z,30.80
2022-11-13T19:00:19.538Z,37.40
2022-11-13T19:03:17.725Z,34.20
2022-11-13T19:06:11.151Z,42.00
2022-11-13T19:09:10.716Z,39.30
2022-11-13T19:12:03.992Z,28.70
2022-11-13T19:14:54.152Z,36.70
2022-11-13T19:17:49.038Z,40.70
2022-11-13T19:20:39.731Z,43.40
2022-11-13T19:23:33.340Z,32.40
2022-11-13T19:26:21.056Z,38.20
2022-11-13T19:29:08.838Z,27.60
2022-11-13T19:31:58.321Z,27.00
2022-11-13T19:37:37.166Z,22.90
2022-11-13T19:40:24.846Z,26.50
2022-11-13T19:43:15.171Z,27.40
2022-11-13T19:46:07.248Z,25.70
2022-11-13T19:48:54.938Z,25.90
2022-11-13T19:51:48.842Z,25.80
2022-11-13T19:57:33.149Z,25.00
2022-11-13T20:00:47.499Z,26.60
2022-11-13T20:03:38.753Z,21.90
2022-11-13T20:06:31.484Z,20.00
2022-11-13T20:09:18.805Z,22.00
2022-11-13T20:12:08.218Z,26.30
2022-11-13T20:14:57.982Z,22.00
2022-11-13T20:17:54.327Z,26.10
2022-11-13T20:20:44.799Z,24.70
2022-11-13T20:23:36.332Z,22.80
2022-11-13T20:26:24.492Z,27.60
2022-11-13T20:29:14.352Z,29.00
2022-11-13T20:32:01.684Z,25.60
2022-11-13T20:34:53.299Z,27.00
2022-11-13T20:37:41.869Z,23.30
2022-11-13T20:43:27.293Z,21.00
2022-11-13T20:46:21.122Z,25.20
2022-11-13T20:49:11.256Z,22.40
2022-11-13T20:51:58.730Z,24.70
2022-11-13T20:54:45.861Z,27.80
2022-11-13T20:57:38.117Z,27.40
2022-11-13T21:00:31.165Z,25.50
2022-11-13T21:03:22.085Z,23.30
2022-11-13T21:06:13.077Z,22.60
2022-11-13T21:09:01.265Z,20.00
2022-11-13T21:11:50.620Z,23.50
2022-11-13T21:14:38.373Z,27.90
2022-11-13T21:17:25.809Z,19.90
2022-11-13T21:20:16.447Z,25.00
2022-11-13T21:23:09.463Z,23.30
2022-11-13T21:26:00.240Z,20.90
2022-11-13T21:28:53.299Z,24.70
2022-11-13T21:31:40.476Z,22.60
2022-11-13T21:34:27.648Z,21.20
2022-11-13T21:37:18.394Z,19.10
2022-11-13T21:40:09.129Z,19.80
2022-11-13T21:42:57.679Z,24.30
2022-11-13T21:45:44.997Z,23.00
2022-11-13T21:48:33.521Z,23.70
2022-11-13T21:51:20.902Z,22.30
2022-11-13T21:54:13.013Z,19.80
2022-11-13T21:59:50.256Z,19.30
2022-11-13T22:02:37.496Z,23.50
2022-11-13T22:05:24.976Z,18.90
2022-11-13T22:08:12.511Z,22.80
2022-11-13T22:10:59.743Z,21.50
2022-11-13T22:13:55.701Z,21.70
2022-11-13T22:16:45.418Z,18.90
2022-11-13T22:19:36.219Z,18.80
2022-11-13T22:22:27.531Z,22.50
2022-11-13T22:25:20.427Z,15.70
2022-11-13T22:28:07.654Z,16.30
2022-11-13T22:30:55.241Z,19.70
2022-11-13T22:33:48.308Z,21.60
2022-11-13T22:36:37.943Z,17.90
2022-11-13T22:39:24.927Z,27.30
2022-11-13T22:42:12.142Z,22.30
2022-11-13T22:45:10.765Z,21.60
2022-11-13T22:48:11.910Z,24.50
2022-11-13T22:51:04.313Z,18.20
2022-11-13T22:53:56.926Z,21.90
2022-11-13T22:56:44.703Z,20.60
2022-11-13T22:59:31.914Z,24.20
2022-11-13T23:02:21.703Z,21.80
2022-11-13T23:05:10.222Z,18.00
2022-11-13T23:08:00.040Z,21.80
2022-11-13T23:10:53.233Z,26.30
2022-11-13T23:13:44.710Z,22.90
2022-11-13T23:16:34.333Z,21.60
2022-11-13T23:19:21.550Z,24.00
2022-11-13T23:22:09.227Z,25.30
2022-11-13T23:24:56.531Z,23.50
2022-11-13T23:27:45.677Z,25.70
2022-11-13T23:30:32.960Z,25.50
2022-11-13T23:33:23.030Z,23.50
2022-11-13T23:36:13.979Z,24.90
2022-11-13T23:39:01.711Z,24.20
2022-11-13T23:41:52.478Z,27.90
2022-11-13T23:44:39.833Z,20.40
2022-11-13T23:47:26.616Z,24.20
2022-11-13T23:50:14.001Z,24.20
2022-11-13T23:53:01.694Z,26.10
2022-11-13T23:55:51.375Z,22.60
2022-11-13T23:58:38.393Z,24.10
